createdAt,value
2016-06-04T00:00:53.278Z,0
2016-06-04T00:01:53.297Z,0
2016-06-04T00:02:53.330Z,0
2016-06-04T00:03:53.397Z,0
2016-06-04T00:04:53.446Z,0
2016-06-04T00:05:53.496Z,0
2016-06-04T00:06:53.561Z,0
2016-06-04T00:07:53.454Z,0
2016-06-04T00:08:53.660Z,0
2016-06-04T00:09:53.694Z,0
2016-06-04T00:10:53.743Z,0
2016-06-04T00:11:54.354Z,0
2016-06-04T00:12:53.858Z,0
2016-06-04T00:13:53.892Z,0
2016-06-04T00:14:53.957Z,0
2016-06-04T00:15:54.006Z,0
2016-06-04T00:16:54.040Z,0
2016-06-04T00:17:54.106Z,0
2016-06-04T00:18:54.139Z,0
2016-06-04T00:19:54.174Z,0
2016-06-04T00:20:54.239Z,0
2016-06-04T00:21:54.304Z,0
2016-06-04T00:22:54.337Z,0
2016-06-04T00:23:54.387Z,0
2016-06-04T00:24:54.453Z,0
2016-06-04T00:25:54.346Z,0
2016-06-04T00:26:55.098Z,0
2016-06-04T00:27:54.585Z,0
2016-06-04T00:28:54.636Z,0
2016-06-04T00:29:54.669Z,0
2016-06-04T00:30:54.734Z,0
2016-06-04T00:31:54.783Z,0
2016-06-04T00:32:54.833Z,0
2016-06-04T00:33:54.867Z,0
2016-06-04T00:34:54.917Z,0
2016-06-04T00:35:54.982Z,0
2016-06-04T00:36:55.032Z,0
2016-06-04T00:37:55.066Z,0
2016-06-04T00:38:55.131Z,0
2016-06-04T00:39:55.243Z,0
2016-06-04T00:40:55.590Z,0
2016-06-04T00:41:55.436Z,0
2016-06-04T00:42:55.329Z,0
2016-06-04T00:43:55.363Z,0
2016-06-04T00:44:55.443Z,0
2016-06-04T00:45:55.479Z,0
2016-06-04T00:46:55.559Z,0
2016-06-04T00:47:55.593Z,0
2016-06-04T00:48:55.626Z,0
2016-06-04T00:49:55.739Z,0
2016-06-04T00:50:55.726Z,0
2016-06-04T00:51:55.744Z,0
2016-06-04T00:52:55.810Z,0
2016-06-04T00:53:55.875Z,0
2016-06-04T00:54:55.908Z,0
2016-06-04T00:55:56.223Z,0
2016-06-04T00:56:56.054Z,0
2016-06-04T00:57:56.073Z,0
2016-06-04T00:58:56.165Z,0
2016-06-04T00:59:56.202Z,0
2016-06-04T01:00:56.284Z,0
2016-06-04T01:01:56.368Z,0
2016-06-04T01:02:56.451Z,0
2016-06-04T01:03:56.526Z,0
2016-06-04T01:04:56.603Z,0
2016-06-04T01:05:56.649Z,0
2016-06-04T01:06:56.710Z,0
2016-06-04T01:07:56.788Z,0
2016-06-04T01:08:56.846Z,0
2016-06-04T01:09:56.884Z,0
2016-06-04T01:10:56.813Z,0
2016-06-04T01:11:57.695Z,0
2016-06-04T01:12:57.061Z,0
2016-06-04T01:13:57.114Z,0
2016-06-04T01:14:57.165Z,0
2016-06-04T01:15:57.216Z,0
2016-06-04T01:16:57.267Z,0
2016-06-04T01:17:57.303Z,0
2016-06-04T01:18:57.368Z,0
2016-06-04T01:19:57.418Z,0
2016-06-04T01:20:57.454Z,0
2016-06-04T01:21:57.519Z,0
2016-06-04T01:22:57.569Z,0
2016-06-04T01:23:57.619Z,0
2016-06-04T01:24:57.669Z,0
2016-06-04T01:25:57.719Z,0
2016-06-04T01:26:58.128Z,0
2016-06-04T01:27:57.818Z,0
2016-06-04T01:28:57.853Z,0
2016-06-04T01:29:57.934Z,0
2016-06-04T01:30:57.968Z,0
2016-06-04T01:31:58.001Z,0
2016-06-04T01:32:58.051Z,0
2016-06-04T01:33:58.100Z,0
2016-06-04T01:34:58.151Z,0
2016-06-04T01:35:58.200Z,0
2016-06-04T01:36:58.281Z,0
2016-06-04T01:37:58.331Z,0
2016-06-04T01:38:58.364Z,0
2016-06-04T01:39:58.476Z,0
2016-06-04T01:40:58.511Z,0
2016-06-04T01:41:58.825Z,0
2016-06-04T01:42:58.547Z,0
2016-06-04T01:43:58.597Z,0
2016-06-04T01:44:58.677Z,0
2016-06-04T01:45:58.695Z,0
2016-06-04T01:46:58.745Z,0
2016-06-04T01:47:58.811Z,0
2016-06-04T01:48:58.875Z,0
2016-06-04T01:49:58.941Z,0
2016-06-04T01:50:58.943Z,0
2016-06-04T01:51:58.993Z,0
2016-06-04T01:52:59.058Z,0
2016-06-04T01:53:59.138Z,0
2016-06-04T01:54:59.141Z,0
2016-06-04T01:56:00.191Z,0
2016-06-04T01:56:59.319Z,0
2016-06-04T01:57:59.307Z,0
2016-06-04T01:58:59.355Z,0
2016-06-04T01:59:59.404Z,0
2016-06-04T02:00:59.455Z,0
2016-06-04T02:01:59.488Z,0
2016-06-04T02:02:59.553Z,0
2016-06-04T02:03:59.432Z,0
2016-06-04T02:04:59.637Z,0
2016-06-04T02:05:59.686Z,0
2016-06-04T02:06:59.721Z,0
2016-06-04T02:07:59.801Z,0
2016-06-04T02:08:59.850Z,0
2016-06-04T02:09:59.745Z,0
2016-06-04T02:11:01.138Z,0
2016-06-04T02:12:00.014Z,0
2016-06-04T02:13:00.065Z,0
2016-06-04T02:14:00.099Z,0
2016-06-04T02:15:00.148Z,0
2016-06-04T02:16:00.182Z,0
2016-06-04T02:17:00.091Z,0
2016-06-04T02:18:00.281Z,0
2016-06-04T02:19:00.331Z,0
2016-06-04T02:20:00.240Z,0
2016-06-04T02:21:00.446Z,0
2016-06-04T02:22:00.480Z,0
2016-06-04T02:23:00.561Z,0
2016-06-04T02:24:00.611Z,0
2016-06-04T02:25:00.644Z,0
2016-06-04T02:26:00.568Z,0
2016-06-04T02:27:01.274Z,0
2016-06-04T02:28:00.777Z,0
2016-06-04T02:29:00.842Z,0
2016-06-04T02:30:00.876Z,0
2016-06-04T02:31:00.941Z,0
2016-06-04T02:32:00.991Z,4
2016-06-04T02:33:01.025Z,4
2016-06-04T02:34:01.074Z,0
2016-06-04T02:35:01.140Z,0
2016-06-04T02:36:01.174Z,4
2016-06-04T02:37:01.239Z,4
2016-06-04T02:38:01.288Z,4
2016-06-04T02:39:01.167Z,4
2016-06-04T02:40:01.356Z,4
2016-06-04T02:41:01.703Z,4
2016-06-04T02:42:01.737Z,8
2016-06-04T02:43:01.536Z,4
2016-06-04T02:44:01.586Z,8
2016-06-04T02:45:01.620Z,8
2016-06-04T02:46:01.700Z,8
2016-06-04T02:47:01.719Z,12
2016-06-04T02:48:01.752Z,12
2016-06-04T02:49:01.818Z,16
2016-06-04T02:50:01.852Z,16
2016-06-04T02:51:01.902Z,20
2016-06-04T02:52:01.966Z,24
2016-06-04T02:53:02.016Z,24
2016-06-04T02:54:02.066Z,28
2016-06-04T02:55:02.116Z,32
2016-06-04T02:56:02.352Z,40
2016-06-04T02:57:02.308Z,40
2016-06-04T02:58:02.279Z,48
2016-06-04T02:59:02.298Z,52
2016-06-04T03:00:02.426Z,56
2016-06-04T03:01:02.397Z,64
2016-06-04T03:02:02.446Z,72
2016-06-04T03:03:02.496Z,80
2016-06-04T03:04:02.562Z,88
2016-06-04T03:05:02.440Z,96
2016-06-04T03:06:02.645Z,108
2016-06-04T03:07:02.695Z,124
2016-06-04T03:08:02.760Z,136
2016-06-04T03:09:02.793Z,144
2016-06-04T03:10:02.843Z,160
2016-06-04T03:11:03.767Z,176
2016-06-04T03:12:03.614Z,192
2016-06-04T03:13:02.992Z,208
2016-06-04T03:14:03.042Z,224
2016-06-04T03:15:03.091Z,248
2016-06-04T03:16:03.125Z,268
2016-06-04T03:17:03.175Z,292
2016-06-04T03:18:03.239Z,312
2016-06-04T03:19:03.306Z,336
2016-06-04T03:20:03.355Z,360
2016-06-04T03:21:03.388Z,388
2016-06-04T03:22:03.439Z,416
2016-06-04T03:23:03.566Z,440
2016-06-04T03:24:03.553Z,468
2016-06-04T03:25:03.586Z,500
2016-06-04T03:26:03.480Z,536
2016-06-04T03:27:04.233Z,568
2016-06-04T03:28:03.564Z,596
2016-06-04T03:29:03.769Z,632
2016-06-04T03:30:03.819Z,668
2016-06-04T03:31:03.885Z,700
2016-06-04T03:32:03.935Z,736
2016-06-04T03:33:03.982Z,772
2016-06-04T03:34:04.033Z,812
2016-06-04T03:35:04.067Z,848
2016-06-04T03:36:04.116Z,888
2016-06-04T03:37:04.165Z,928
2016-06-04T03:38:04.231Z,968
2016-06-04T03:39:04.249Z,1008
2016-06-04T03:40:04.362Z,1048
2016-06-04T03:41:04.958Z,1092
2016-06-04T03:42:04.398Z,1136
2016-06-04T03:43:04.463Z,1180
2016-06-04T03:44:04.497Z,1228
2016-06-04T03:45:04.390Z,1272
2016-06-04T03:46:04.612Z,1324
2016-06-04T03:47:04.678Z,1376
2016-06-04T03:48:04.711Z,1436
2016-06-04T03:49:04.761Z,1488
2016-06-04T03:50:04.825Z,1544
2016-06-04T03:51:04.844Z,1600
2016-06-04T03:52:04.893Z,1656
2016-06-04T03:53:04.959Z,1712
2016-06-04T03:54:04.993Z,1768
2016-06-04T03:55:05.042Z,1820
2016-06-04T03:56:05.904Z,1872
2016-06-04T03:57:05.141Z,1920
2016-06-04T03:58:05.191Z,1968
2016-06-04T03:59:05.257Z,2016
2016-06-04T04:00:05.290Z,2072
2016-06-04T04:01:05.340Z,2120
2016-06-04T04:02:05.374Z,2168
2016-06-04T04:03:05.439Z,2220
2016-06-04T04:04:05.473Z,2272
2016-06-04T04:05:05.523Z,2320
2016-06-04T04:06:05.588Z,2368
2016-06-04T04:07:05.637Z,2420
2016-06-04T04:08:05.671Z,2468
2016-06-04T04:09:05.720Z,2504
2016-06-04T04:10:05.786Z,2544
2016-06-04T04:11:05.835Z,2584
2016-06-04T04:12:05.870Z,2616
2016-06-04T04:13:05.919Z,2652
2016-06-04T04:14:05.968Z,2692
2016-06-04T04:15:06.018Z,2732
2016-06-04T04:16:06.067Z,2772
2016-06-04T04:17:06.117Z,2816
2016-06-04T04:18:06.183Z,2864
2016-06-04T04:19:06.231Z,2916
2016-06-04T04:20:06.266Z,2964
2016-06-04T04:21:06.316Z,3012
2016-06-04T04:22:06.381Z,3060
2016-06-04T04:23:06.414Z,3108
2016-06-04T04:24:06.464Z,3156
2016-06-04T04:25:06.498Z,3224
2016-06-04T04:26:06.408Z,3324
2016-06-04T04:27:07.019Z,3428
2016-06-04T04:28:06.663Z,3548
2016-06-04T04:29:06.728Z,3616
2016-06-04T04:30:06.777Z,3556
2016-06-04T04:31:06.638Z,3508
2016-06-04T04:32:06.845Z,3544
2016-06-04T04:33:06.910Z,3580
2016-06-04T04:34:06.944Z,3624
2016-06-04T04:35:07.009Z,3672
2016-06-04T04:36:07.059Z,3716
2016-06-04T04:37:07.109Z,3756
2016-06-04T04:38:07.157Z,3800
2016-06-04T04:39:07.193Z,3832
2016-06-04T04:40:07.288Z,3868
2016-06-04T04:41:07.245Z,3908
2016-06-04T04:42:07.215Z,3960
2016-06-04T04:43:07.406Z,3984
2016-06-04T04:44:07.456Z,4016
2016-06-04T04:45:07.490Z,4052
2016-06-04T04:46:07.539Z,4084
2016-06-04T04:47:07.432Z,4128
2016-06-04T04:48:07.638Z,4176
2016-06-04T04:49:07.531Z,4244
2016-06-04T04:50:07.737Z,4284
2016-06-04T04:51:07.818Z,4336
2016-06-04T04:52:07.852Z,4396
2016-06-04T04:53:07.886Z,4436
2016-06-04T04:54:07.936Z,4492
2016-06-04T04:55:07.829Z,4532
2016-06-04T04:56:07.925Z,4572
2016-06-04T04:57:08.412Z,4616
2016-06-04T04:58:08.150Z,4660
2016-06-04T04:59:08.199Z,4700
2016-06-04T05:00:08.232Z,4744
2016-06-04T05:01:08.282Z,4792
2016-06-04T05:02:08.316Z,4828
2016-06-04T05:03:08.382Z,4852
2016-06-04T05:04:08.432Z,4884
2016-06-04T05:05:08.480Z,4936
2016-06-04T05:06:08.546Z,4980
2016-06-04T05:07:08.611Z,5028
2016-06-04T05:08:08.645Z,5068
2016-06-04T05:09:08.695Z,5104
2016-06-04T05:10:08.760Z,5160
2016-06-04T05:11:09.215Z,5188
2016-06-04T05:12:08.828Z,5236
2016-06-04T05:13:08.862Z,5280
2016-06-04T05:14:08.927Z,5312
2016-06-04T05:15:08.976Z,5344
2016-06-04T05:16:09.041Z,5396
2016-06-04T05:17:09.076Z,5420
2016-06-04T05:18:08.969Z,5444
2016-06-04T05:19:09.159Z,5480
2016-06-04T05:20:09.225Z,5492
2016-06-04T05:21:09.290Z,5496
2016-06-04T05:22:09.323Z,5520
2016-06-04T05:23:09.372Z,5552
2016-06-04T05:24:09.423Z,5560
2016-06-04T05:25:09.472Z,5560
2016-06-04T05:26:09.522Z,5576
2016-06-04T05:27:10.336Z,5616
2016-06-04T05:28:09.464Z,5672
2016-06-04T05:29:09.499Z,5724
2016-06-04T05:30:09.704Z,5768
2016-06-04T05:31:09.769Z,5804
2016-06-04T05:32:09.803Z,5848
2016-06-04T05:33:09.853Z,5900
2016-06-04T05:34:09.933Z,5912
2016-06-04T05:35:09.952Z,5940
2016-06-04T05:36:10.017Z,5972
2016-06-04T05:37:10.067Z,5984
2016-06-04T05:38:10.101Z,5976
2016-06-04T05:39:10.182Z,5996
2016-06-04T05:40:10.263Z,5992
2016-06-04T05:41:10.843Z,5732
2016-06-04T05:42:10.362Z,5512
2016-06-04T05:43:10.348Z,5712
2016-06-04T05:44:10.460Z,5628
2016-06-04T05:45:10.448Z,5468
2016-06-04T05:46:10.512Z,5452
2016-06-04T05:47:10.547Z,5268
2016-06-04T05:48:10.628Z,5128
2016-06-04T05:49:10.506Z,5176
2016-06-04T05:50:10.711Z,5056
2016-06-04T05:51:10.604Z,5088
2016-06-04T05:52:10.811Z,5100
2016-06-04T05:53:10.859Z,4932
2016-06-04T05:54:10.909Z,4880
2016-06-04T05:55:10.959Z,4912
2016-06-04T05:56:11.211Z,5024
2016-06-04T05:57:11.058Z,5320
2016-06-04T05:58:11.108Z,5684
2016-06-04T05:59:11.001Z,5968
2016-06-04T06:00:11.222Z,6004
2016-06-04T06:01:11.256Z,6072
2016-06-04T06:02:11.321Z,6172
2016-06-04T06:03:11.356Z,6196
2016-06-04T06:04:11.405Z,6288
2016-06-04T06:05:11.455Z,6448
2016-06-04T06:06:11.504Z,6448
2016-06-04T06:07:11.257Z,6320
2016-06-04T06:08:11.603Z,6096
2016-06-04T06:09:11.496Z,6200
2016-06-04T06:10:11.702Z,6368
2016-06-04T06:11:11.940Z,6528
2016-06-04T06:12:11.801Z,6680
2016-06-04T06:13:11.867Z,6752
2016-06-04T06:14:11.901Z,6964
2016-06-04T06:15:11.966Z,7128
2016-06-04T06:16:12.015Z,7220
2016-06-04T06:17:12.081Z,7312
2016-06-04T06:18:12.099Z,7320
2016-06-04T06:19:12.179Z,7320
2016-06-04T06:20:12.214Z,7480
2016-06-04T06:21:12.264Z,7540
2016-06-04T06:22:12.312Z,7552
2016-06-04T06:23:12.362Z,7504
2016-06-04T06:24:12.396Z,7468
2016-06-04T06:25:12.461Z,7616
2016-06-04T06:26:13.356Z,7692
2016-06-04T06:27:12.561Z,7780
2016-06-04T06:28:12.641Z,7784
2016-06-04T06:29:12.660Z,7868
2016-06-04T06:30:12.709Z,7868
2016-06-04T06:31:12.758Z,7864
2016-06-04T06:32:12.808Z,7876
2016-06-04T06:33:12.874Z,7932
2016-06-04T06:34:12.908Z,8040
2016-06-04T06:35:12.972Z,8096
2016-06-04T06:36:13.007Z,8100
2016-06-04T06:37:13.057Z,8168
2016-06-04T06:38:13.105Z,8224
2016-06-04T06:39:13.155Z,8276
2016-06-04T06:40:13.283Z,8324
2016-06-04T06:41:13.145Z,8380
2016-06-04T06:42:13.320Z,8428
2016-06-04T06:43:13.385Z,8496
2016-06-04T06:44:13.403Z,8588
2016-06-04T06:45:13.468Z,8648
2016-06-04T06:46:13.502Z,8692
2016-06-04T06:47:13.568Z,8732
2016-06-04T06:48:13.617Z,8800
2016-06-04T06:49:13.667Z,8832
2016-06-04T06:50:13.716Z,8856
2016-06-04T06:51:13.641Z,8888
2016-06-04T06:52:13.815Z,8916
2016-06-04T06:53:13.881Z,8940
2016-06-04T06:54:13.930Z,8984
2016-06-04T06:55:13.964Z,8920
2016-06-04T06:56:14.061Z,8952
2016-06-04T06:57:14.063Z,8948
2016-06-04T06:58:13.972Z,8984
2016-06-04T06:59:14.194Z,8964
2016-06-04T07:00:14.212Z,8940
2016-06-04T07:01:14.278Z,8936
2016-06-04T07:02:14.342Z,8936
2016-06-04T07:03:14.377Z,8900
2016-06-04T07:04:14.425Z,8860
2016-06-04T07:05:14.491Z,8840
2016-06-04T07:06:14.556Z,8852
2016-06-04T07:07:14.591Z,8820
2016-06-04T07:08:14.655Z,8784
2016-06-04T07:09:14.688Z,8772
2016-06-04T07:10:14.754Z,8760
2016-06-04T07:11:15.054Z,8728
2016-06-04T07:12:14.837Z,8724
2016-06-04T07:13:14.731Z,8716
2016-06-04T07:14:15.047Z,8616
2016-06-04T07:15:15.112Z,8616
2016-06-04T07:16:15.036Z,8636
2016-06-04T07:17:15.101Z,8604
2016-06-04T07:18:15.151Z,8552
2016-06-04T07:19:15.201Z,8504
2016-06-04T07:20:15.250Z,8464
2016-06-04T07:21:15.315Z,8460
2016-06-04T07:22:15.349Z,8488
2016-06-04T07:23:15.415Z,8488
2016-06-04T07:24:15.464Z,8516
2016-06-04T07:25:15.513Z,8516
2016-06-04T07:26:16.095Z,8516
2016-06-04T07:27:15.597Z,8488
2016-06-04T07:28:15.662Z,8488
2016-06-04T07:29:15.728Z,8480
2016-06-04T07:30:15.761Z,8536
2016-06-04T07:31:15.811Z,8552
2016-06-04T07:32:15.875Z,8572
2016-06-04T07:33:15.910Z,8528
2016-06-04T07:34:15.975Z,8560
2016-06-04T07:35:16.025Z,8652
2016-06-04T07:36:16.058Z,8716
2016-06-04T07:37:16.171Z,8744
2016-06-04T07:38:16.174Z,8720
2016-06-04T07:39:16.224Z,8824
2016-06-04T07:40:16.319Z,8904
2016-06-04T07:41:18.104Z,8872
2016-06-04T07:42:16.388Z,8956
2016-06-04T07:43:16.563Z,8876
2016-06-04T07:44:16.487Z,8848
2016-06-04T07:45:16.660Z,8776
2016-06-04T07:46:16.601Z,8772
2016-06-04T07:47:16.651Z,8688
2016-06-04T07:48:16.701Z,8664
2016-06-04T07:49:16.750Z,8848
2016-06-04T07:50:16.799Z,9008
2016-06-04T07:51:16.709Z,9132
2016-06-04T07:52:16.914Z,9196
2016-06-04T07:53:16.948Z,9240
2016-06-04T07:54:17.028Z,9324
2016-06-04T07:55:17.063Z,9372
2016-06-04T07:56:17.581Z,9280
2016-06-04T07:57:17.240Z,9364
2016-06-04T07:58:17.212Z,9328
2016-06-04T07:59:17.261Z,9328
2016-06-04T08:00:17.311Z,9440
2016-06-04T08:01:17.376Z,9472
2016-06-04T08:02:17.425Z,9572
2016-06-04T08:03:17.475Z,9496
2016-06-04T08:04:17.509Z,9388
2016-06-04T08:05:17.589Z,9128
2016-06-04T08:06:17.639Z,9272
2016-06-04T08:07:19.377Z,9564
2016-06-04T08:08:17.723Z,9516
2016-06-04T08:09:17.788Z,9920
2016-06-04T08:10:17.838Z,9404
2016-06-04T08:11:17.887Z,9236
2016-06-04T08:12:20.327Z,9384
2016-06-04T08:13:18.518Z,8888
2016-06-04T08:14:18.051Z,9032
2016-06-04T08:15:18.102Z,9112
2016-06-04T08:16:18.166Z,9076
2016-06-04T08:17:20.341Z,9224
2016-06-04T08:18:18.249Z,9228
2016-06-04T08:19:18.299Z,9384
2016-06-04T08:20:18.380Z,9472
2016-06-04T08:21:18.414Z,9588
2016-06-04T08:22:18.464Z,9820
2016-06-04T08:23:18.528Z,9920
2016-06-04T08:24:18.563Z,9944
2016-06-04T08:25:18.456Z,9924
2016-06-04T08:26:19.037Z,10032
2016-06-04T08:27:18.728Z,9780
2016-06-04T08:28:18.776Z,9676
2016-06-04T08:29:18.826Z,9568
2016-06-04T08:30:18.891Z,9524
2016-06-04T08:31:18.956Z,9656
2016-06-04T08:32:19.022Z,9776
2016-06-04T08:33:19.039Z,9916
2016-06-04T08:34:19.106Z,10052
2016-06-04T08:35:18.842Z,10156
2016-06-04T08:36:21.797Z,10060
2016-06-04T08:37:19.285Z,10352
2016-06-04T08:38:19.319Z,10356
2016-06-04T08:39:20.696Z,10220
2016-06-04T08:40:19.465Z,10396
2016-06-04T08:41:19.468Z,10312
2016-06-04T08:42:19.220Z,10216
2016-06-04T08:43:20.035Z,10284
2016-06-04T08:44:19.617Z,10208
2016-06-04T08:45:19.682Z,10116
2016-06-04T08:46:19.747Z,10092
2016-06-04T08:47:19.781Z,10344
2016-06-04T08:48:19.846Z,10440
2016-06-04T08:49:19.896Z,10492
2016-06-04T08:50:19.945Z,10588
2016-06-04T08:51:19.995Z,10716
2016-06-04T08:52:20.060Z,10808
2016-06-04T08:53:20.109Z,10904
2016-06-04T08:54:20.159Z,10960
2016-06-04T08:55:20.209Z,10988
2016-06-04T08:56:20.258Z,11028
2016-06-04T08:57:20.198Z,11132
2016-06-04T08:58:22.326Z,11164
2016-06-04T08:59:20.906Z,11204
2016-06-04T09:00:20.472Z,11248
2016-06-04T09:01:20.522Z,11300
2016-06-04T09:02:20.665Z,11288
2016-06-04T09:03:20.620Z,11292
2016-06-04T09:04:20.686Z,11200
2016-06-04T09:05:20.736Z,11436
2016-06-04T09:06:20.786Z,11596
2016-06-04T09:07:20.850Z,11652
2016-06-04T09:08:20.900Z,11704
2016-06-04T09:09:20.966Z,11772
2016-06-04T09:10:21.014Z,11804
2016-06-04T09:11:21.064Z,11676
2016-06-04T09:12:22.145Z,11716
2016-06-04T09:13:21.663Z,11940
2016-06-04T09:14:21.213Z,12028
2016-06-04T09:15:21.277Z,12084
2016-06-04T09:16:21.328Z,12180
2016-06-04T09:17:21.393Z,12204
2016-06-04T09:18:21.442Z,12260
2016-06-04T09:19:21.539Z,12392
2016-06-04T09:20:21.541Z,12368
2016-06-04T09:21:21.607Z,12352
2016-06-04T09:22:21.657Z,12544
2016-06-04T09:23:21.706Z,12600
2016-06-04T09:24:21.771Z,12804
2016-06-04T09:25:21.821Z,12988
2016-06-04T09:26:21.870Z,13136
2016-06-04T09:27:21.935Z,13272
2016-06-04T09:28:21.828Z,13404
2016-06-04T09:29:22.223Z,13452
2016-06-04T09:30:22.084Z,13552
2016-06-04T09:31:22.133Z,13580
2016-06-04T09:32:22.214Z,13544
2016-06-04T09:33:22.265Z,13580
2016-06-04T09:34:22.298Z,13704
2016-06-04T09:35:22.364Z,13752
2016-06-04T09:36:22.413Z,13820
2016-06-04T09:37:22.306Z,13876
2016-06-04T09:38:22.528Z,13956
2016-06-04T09:39:22.592Z,14000
2016-06-04T09:40:22.674Z,14012
2016-06-04T09:41:22.520Z,14044
2016-06-04T09:42:22.758Z,14064
2016-06-04T09:43:22.510Z,14108
2016-06-04T09:44:23.513Z,14168
2016-06-04T09:45:22.905Z,14132
2016-06-04T09:46:22.955Z,14144
2016-06-04T09:47:23.021Z,14200
2016-06-04T09:48:23.070Z,14236
2016-06-04T09:49:23.119Z,14356
2016-06-04T09:50:23.185Z,14480
2016-06-04T09:51:23.235Z,14576
2016-06-04T09:52:23.299Z,14768
2016-06-04T09:53:23.348Z,14908
2016-06-04T09:54:23.415Z,15016
2016-06-04T09:55:23.464Z,15052
2016-06-04T09:56:23.513Z,15136
2016-06-04T09:57:23.594Z,15188
2016-06-04T09:58:23.504Z,15232
2016-06-04T09:59:24.115Z,15368
2016-06-04T10:00:23.728Z,15388
2016-06-04T10:01:23.870Z,15536
2016-06-04T10:02:23.858Z,15700
2016-06-04T10:03:23.892Z,15376
2016-06-04T10:04:23.957Z,15876
2016-06-04T10:05:24.054Z,16220
2016-06-04T10:06:24.117Z,16324
2016-06-04T10:07:24.225Z,16532
2016-06-04T10:08:24.287Z,16536
2016-06-04T10:09:24.426Z,16892
2016-06-04T10:10:24.430Z,17112
2016-06-04T10:11:27.771Z,17364
2016-06-04T10:12:24.581Z,17824
2016-06-04T10:13:24.641Z,17916
2016-06-04T10:14:24.887Z,18112
2016-06-04T10:15:24.630Z,17672
2016-06-04T10:16:24.699Z,17344
2016-06-04T10:17:24.876Z,18340
2016-06-04T10:18:24.819Z,18460
2016-06-04T10:19:24.889Z,18504
2016-06-04T10:20:25.066Z,18560
2016-06-04T10:21:33.460Z,18808
2016-06-04T10:22:25.042Z,18732
2016-06-04T10:23:25.125Z,18428
2016-06-04T10:24:25.301Z,18348
2016-06-04T10:25:25.351Z,18360
2016-06-04T10:26:25.417Z,18488
2016-06-04T10:27:25.468Z,18096
2016-06-04T10:28:25.938Z,18864
2016-06-04T10:29:26.083Z,19808
2016-06-04T10:30:25.648Z,19872
2016-06-04T10:31:25.697Z,19744
2016-06-04T10:32:25.747Z,19744
2016-06-04T10:33:25.812Z,19648
2016-06-04T10:34:25.862Z,19456
2016-06-04T10:35:25.912Z,18204
2016-06-04T10:36:25.835Z,18736
2016-06-04T10:37:26.042Z,16780
2016-06-04T10:38:26.091Z,16792
2016-06-04T10:39:26.157Z,18096
2016-06-04T10:40:26.268Z,18000
2016-06-04T10:41:26.271Z,18584
2016-06-04T10:42:26.321Z,21280
2016-06-04T10:43:30.137Z,20800
2016-06-04T10:44:26.279Z,17580
2016-06-04T10:45:26.501Z,20000
2016-06-04T10:46:26.409Z,18376
2016-06-04T10:47:26.616Z,17328
2016-06-04T10:48:26.665Z,17784
2016-06-04T10:49:26.714Z,17984
2016-06-04T10:50:29.827Z,18088
2016-06-04T10:51:26.830Z,19680
2016-06-04T10:52:26.895Z,19584
2016-06-04T10:53:26.944Z,19712
2016-06-04T10:54:27.009Z,17304
2016-06-04T10:55:27.043Z,17288
2016-06-04T10:56:27.108Z,16648
2016-06-04T10:57:27.549Z,15756
2016-06-04T10:58:28.051Z,15520
2016-06-04T10:59:27.289Z,16604
2016-06-04T11:00:27.354Z,19488
2016-06-04T11:01:27.403Z,20800
2016-06-04T11:02:27.453Z,20480
2016-06-04T11:03:27.503Z,21184
2016-06-04T11:04:27.583Z,19040
2016-06-04T11:05:27.633Z,18292
2016-06-04T11:06:27.526Z,20352
2016-06-04T11:07:27.732Z,19712
2016-06-04T11:08:27.813Z,19552
2016-06-04T11:09:27.846Z,18880
2016-06-04T11:10:27.912Z,17368
2016-06-04T11:11:27.992Z,16564
2016-06-04T11:12:28.027Z,16392
2016-06-04T11:13:28.060Z,16276
2016-06-04T11:14:28.720Z,16224
2016-06-04T11:15:28.191Z,18400
2016-06-04T11:16:28.257Z,16932
2016-06-04T11:17:28.306Z,17024
2016-06-04T11:18:28.356Z,20864
2016-06-04T11:19:28.421Z,21472
2016-06-04T11:20:28.470Z,21632
2016-06-04T11:21:28.520Z,21664
2016-06-04T11:22:28.584Z,21856
2016-06-04T11:23:28.634Z,21856
2016-06-04T11:24:28.684Z,21792
2016-06-04T11:25:28.750Z,20288
2016-06-04T11:26:28.814Z,22464
2016-06-04T11:27:28.880Z,22656
2016-06-04T11:28:29.039Z,20608
2016-06-04T11:29:28.979Z,19040
2016-06-04T11:30:29.044Z,18296
2016-06-04T11:31:29.094Z,18336
2016-06-04T11:32:29.158Z,17888
2016-06-04T11:33:29.208Z,17636
2016-06-04T11:34:29.274Z,20576
2016-06-04T11:35:29.339Z,22432
2016-06-04T11:36:29.372Z,21696
2016-06-04T11:37:29.437Z,21728
2016-06-04T11:38:29.347Z,17896
2016-06-04T11:39:29.568Z,17236
2016-06-04T11:40:29.649Z,20032
2016-06-04T11:41:31.245Z,18656
2016-06-04T11:42:29.717Z,21568
2016-06-04T11:43:29.781Z,23520
2016-06-04T11:44:29.848Z,19264
2016-06-04T11:45:29.881Z,17440
2016-06-04T11:46:29.945Z,16584
2016-06-04T11:47:30.012Z,16436
2016-06-04T11:48:30.062Z,19200
2016-06-04T11:49:30.111Z,20544
2016-06-04T11:50:30.176Z,21600
2016-06-04T11:51:30.226Z,21600
2016-06-04T11:52:30.306Z,22304
2016-06-04T11:53:30.340Z,22208
2016-06-04T11:54:30.406Z,20896
2016-06-04T11:55:30.314Z,23616
2016-06-04T11:56:30.379Z,21248
2016-06-04T11:57:31.289Z,21344
2016-06-04T11:58:30.478Z,23456
2016-06-04T11:59:30.684Z,23904
2016-06-04T12:00:30.750Z,23648
2016-06-04T12:01:30.814Z,23296
2016-06-04T12:02:30.880Z,22720
2016-06-04T12:03:30.929Z,20992
2016-06-04T12:04:30.995Z,22496
2016-06-04T12:05:31.044Z,22720
2016-06-04T12:06:31.110Z,22496
2016-06-04T12:07:31.174Z,22144
2016-06-04T12:08:31.225Z,21344
2016-06-04T12:09:31.290Z,21472
2016-06-04T12:10:31.339Z,21376
2016-06-04T12:11:31.373Z,21632
2016-06-04T12:12:32.579Z,22176
2016-06-04T12:13:31.535Z,22528
2016-06-04T12:14:31.584Z,20640
2016-06-04T12:15:31.649Z,23232
2016-06-04T12:16:31.699Z,24000
2016-06-04T12:17:31.748Z,23712
2016-06-04T12:18:31.814Z,20992
2016-06-04T12:19:31.738Z,24256
2016-06-04T12:20:31.945Z,24224
2016-06-04T12:21:32.009Z,23968
2016-06-04T12:22:32.075Z,23104
2016-06-04T12:23:32.123Z,22240
2016-06-04T12:24:32.189Z,22080
2016-06-04T12:25:32.254Z,22336
2016-06-04T12:26:32.335Z,22400
2016-06-04T12:27:32.370Z,22656
2016-06-04T12:28:32.294Z,22592
2016-06-04T12:29:32.500Z,22432
2016-06-04T12:30:32.564Z,22432
2016-06-04T12:31:32.630Z,19416
2016-06-04T12:32:32.680Z,20096
2016-06-04T12:33:32.744Z,22336
2016-06-04T12:34:32.810Z,23200
2016-06-04T12:35:32.860Z,23328
2016-06-04T12:36:32.769Z,23296
2016-06-04T12:37:33.021Z,23616
2016-06-04T12:38:33.055Z,24800
2016-06-04T12:39:33.121Z,23840
2016-06-04T12:40:33.185Z,23712
2016-06-04T12:41:33.235Z,23744
2016-06-04T12:42:33.629Z,23776
2016-06-04T12:43:33.631Z,23872
2016-06-04T12:44:33.446Z,24416
2016-06-04T12:45:33.479Z,24448
2016-06-04T12:46:33.546Z,24672
2016-06-04T12:47:33.610Z,25312
2016-06-04T12:48:33.676Z,26080
2016-06-04T12:49:33.725Z,26176
2016-06-04T12:50:33.806Z,29632
2016-06-04T12:51:33.871Z,42048
2016-06-04T12:52:33.764Z,22720
2016-06-04T12:53:33.986Z,24576
2016-06-04T12:54:34.051Z,24672
2016-06-04T12:55:34.101Z,23712
2016-06-04T12:56:34.291Z,24224
2016-06-04T12:57:34.637Z,21504
2016-06-04T12:58:34.297Z,19552
2016-06-04T12:59:34.220Z,18912
2016-06-04T13:00:34.427Z,20192
2016-06-04T13:01:34.476Z,23424
2016-06-04T13:02:34.542Z,89696
2016-06-04T13:03:34.591Z,86240
2016-06-04T13:04:34.656Z,60800
2016-06-04T13:05:34.566Z,90656
2016-06-04T13:06:34.630Z,93024
2016-06-04T13:07:34.836Z,93088
2016-06-04T13:08:34.901Z,93088
2016-06-04T13:09:34.966Z,95136
2016-06-04T13:10:35.032Z,90144
2016-06-04T13:11:35.097Z,87360
2016-06-04T13:12:35.147Z,89728
2016-06-04T13:13:36.008Z,88448
2016-06-04T13:14:35.276Z,91264
2016-06-04T13:15:35.171Z,94336
2016-06-04T13:16:35.407Z,96064
2016-06-04T13:17:35.488Z,98560
2016-06-04T13:18:35.522Z,96576
2016-06-04T13:19:35.587Z,89696
2016-06-04T13:20:35.651Z,96288
2016-06-04T13:21:35.718Z,96736
2016-06-04T13:22:35.782Z,94144
2016-06-04T13:23:35.848Z,95296
2016-06-04T13:24:35.772Z,96640
2016-06-04T13:25:35.823Z,99296
2016-06-04T13:26:37.215Z,99296
2016-06-04T13:27:36.109Z,26816
2016-06-04T13:28:36.173Z,34464